sensor_id;sensor_type;location;lat;lon;timestamp;P1;durP1;ratioP1;P2;durP2;ratioP2
10174;SDS011;18221;38.704;0.152;2023-03-23T00:05:13;13.00;;;11.70;;
10174;SDS011;18221;38.704;0.152;2023-03-23T00:07:41;12.70;;;11.37;;
10174;SDS011;18221;38.704;0.152;2023-03-23T00:10:10;12.10;;;11.00;;
10174;SDS011;18221;38.704;0.152;2023-03-23T00:12:38;13.70;;;12.30;;
10174;SDS011;18221;38.704;0.152;2023-03-23T00:15:08;13.50;;;12.30;;
10174;SDS011;18221;38.704;0.152;2023-03-23T00:17:38;15.50;;;13.90;;
10174;SDS011;18221;38.704;0.152;2023-03-23T00:20:09;15.50;;;13.90;;
10174;SDS011;18221;38.704;0.152;2023-03-23T00:22:39;15.53;;;13.30;;
10174;SDS011;18221;38.704;0.152;2023-03-23T00:25:08;15.47;;;13.90;;
10174;SDS011;18221;38.704;0.152;2023-03-23T00:27:36;15.33;;;13.90;;
10174;SDS011;18221;38.704;0.152;2023-03-23T00:30:06;15.80;;;12.73;;
10174;SDS011;18221;38.704;0.152;2023-03-23T00:32:35;14.17;;;12.67;;
10174;SDS011;18221;38.704;0.152;2023-03-23T00:35:04;16.27;;;13.83;;
10174;SDS011;18221;38.704;0.152;2023-03-23T00:37:33;12.80;;;11.60;;
10174;SDS011;18221;38.704;0.152;2023-03-23T00:40:03;19.00;;;17.13;;
10174;SDS011;18221;38.704;0.152;2023-03-23T00:42:35;15.37;;;12.50;;
10174;SDS011;18221;38.704;0.152;2023-03-23T00:45:04;13.97;;;12.57;;
10174;SDS011;18221;38.704;0.152;2023-03-23T00:47:35;15.57;;;14.17;;
10174;SDS011;18221;38.704;0.152;2023-03-23T00:50:06;17.83;;;15.37;;
10174;SDS011;18221;38.704;0.152;2023-03-23T00:52:35;15.47;;;13.90;;
10174;SDS011;18221;38.704;0.152;2023-03-23T00:55:05;11.10;;;10.00;;
10174;SDS011;18221;38.704;0.152;2023-03-23T00:57:35;13.33;;;11.93;;
10174;SDS011;18221;38.704;0.152;2023-03-23T01:00:03;13.57;;;10.63;;
10174;SDS011;18221;38.704;0.152;2023-03-23T01:02:36;13.13;;;11.20;;
10174;SDS011;18221;38.704;0.152;2023-03-23T01:05:06;13.20;;;11.80;;
10174;SDS011;18221;38.704;0.152;2023-03-23T01:07:35;14.97;;;13.57;;
10174;SDS011;18221;38.704;0.152;2023-03-23T01:10:06;12.93;;;11.77;;
10174;SDS011;18221;38.704;0.152;2023-03-23T01:12:37;14.67;;;12.80;;
10174;SDS011;18221;38.704;0.152;2023-03-23T01:15:06;13.57;;;12.17;;
10174;SDS011;18221;38.704;0.152;2023-03-23T01:17:35;14.63;;;13.23;;
10174;SDS011;18221;38.704;0.152;2023-03-23T01:20:04;16.40;;;13.73;;
10174;SDS011;18221;38.704;0.152;2023-03-23T01:22:34;15.83;;;14.27;;
10174;SDS011;18221;38.704;0.152;2023-03-23T01:25:02;15.50;;;13.90;;
10174;SDS011;18221;38.704;0.152;2023-03-23T01:27:34;13.97;;;12.57;;
10174;SDS011;18221;38.704;0.152;2023-03-23T01:30:03;15.63;;;14.17;;
10174;SDS011;18221;38.704;0.152;2023-03-23T01:32:33;16.37;;;12.43;;
10174;SDS011;18221;38.704;0.152;2023-03-23T01:35:02;13.07;;;11.77;;
10174;SDS011;18221;38.704;0.152;2023-03-23T01:37:31;13.73;;;12.33;;
10174;SDS011;18221;38.704;0.152;2023-03-23T01:40:01;13.90;;;12.70;;
10174;SDS011;18221;38.704;0.152;2023-03-23T01:42:34;13.70;;;12.40;;
10174;SDS011;18221;38.704;0.152;2023-03-23T01:48:09;15.97;;;14.37;;
10174;SDS011;18221;38.704;0.152;2023-03-23T01:50:47;16.33;;;14.63;;
10174;SDS011;18221;38.704;0.152;2023-03-23T01:53:23;15.87;;;14.23;;
10174;SDS011;18221;38.704;0.152;2023-03-23T01:55:58;19.10;;;14.57;;
10174;SDS011;18221;38.704;0.152;2023-03-23T01:58:30;15.90;;;14.37;;
10174;SDS011;18221;38.704;0.152;2023-03-23T02:01:02;17.53;;;15.57;;
10174;SDS011;18221;38.704;0.152;2023-03-23T02:03:36;18.83;;;15.10;;
10174;SDS011;18221;38.704;0.152;2023-03-23T02:06:10;18.40;;;16.40;;
10174;SDS011;18221;38.704;0.152;2023-03-23T02:08:38;18.93;;;17.03;;
10174;SDS011;18221;38.704;0.152;2023-03-23T02:11:14;18.80;;;16.93;;
10174;SDS011;18221;38.704;0.152;2023-03-23T02:13:44;20.23;;;16.60;;
10174;SDS011;18221;38.704;0.152;2023-03-23T02:16:15;16.97;;;15.40;;
10174;SDS011;18221;38.704;0.152;2023-03-23T02:19:02;19.23;;;16.20;;
10174;SDS011;18221;38.704;0.152;2023-03-23T02:25:13;21.40;;;17.93;;
10174;SDS011;18221;38.704;0.152;2023-03-23T02:31:25;19.17;;;15.93;;
10174;SDS011;18221;38.704;0.152;2023-03-23T02:34:12;19.90;;;15.83;;
10174;SDS011;18221;38.704;0.152;2023-03-23T02:36:48;20.67;;;17.20;;
10174;SDS011;18221;38.704;0.152;2023-03-23T02:39:26;21.43;;;15.83;;
10174;SDS011;18221;38.704;0.152;2023-03-23T02:42:01;21.93;;;16.50;;
10174;SDS011;18221;38.704;0.152;2023-03-23T02:44:34;18.33;;;16.07;;
10174;SDS011;18221;38.704;0.152;2023-03-23T02:47:07;20.07;;;17.10;;
10174;SDS011;18221;38.704;0.152;2023-03-23T02:49:44;18.47;;;16.60;;
10174;SDS011;18221;38.704;0.152;2023-03-23T02:52:17;20.77;;;17.10;;
10174;SDS011;18221;38.704;0.152;2023-03-23T02:54:50;19.97;;;17.63;;
10174;SDS011;18221;38.704;0.152;2023-03-23T02:57:22;22.07;;;18.13;;
10174;SDS011;18221;38.704;0.152;2023-03-23T02:59:53;25.97;;;19.00;;
10174;SDS011;18221;38.704;0.152;2023-03-23T03:02:22;19.60;;;17.20;;
10174;SDS011;18221;38.704;0.152;2023-03-23T03:04:56;17.60;;;15.73;;
10174;SDS011;18221;38.704;0.152;2023-03-23T03:07:40;17.47;;;14.83;;
10174;SDS011;18221;38.704;0.152;2023-03-23T03:10:30;19.63;;;15.43;;
10174;SDS011;18221;38.704;0.152;2023-03-23T03:13:07;21.07;;;16.77;;
10174;SDS011;18221;38.704;0.152;2023-03-23T03:15:48;20.53;;;16.97;;
10174;SDS011;18221;38.704;0.152;2023-03-23T03:18:24;20.47;;;16.20;;
10174;SDS011;18221;38.704;0.152;2023-03-23T03:21:02;20.17;;;16.27;;
10174;SDS011;18221;38.704;0.152;2023-03-23T03:23:36;19.23;;;15.77;;
10174;SDS011;18221;38.704;0.152;2023-03-23T03:26:16;18.20;;;15.67;;
10174;SDS011;18221;38.704;0.152;2023-03-23T03:28:47;22.63;;;17.50;;
10174;SDS011;18221;38.704;0.152;2023-03-23T03:31:16;19.20;;;15.73;;
10174;SDS011;18221;38.704;0.152;2023-03-23T03:33:50;17.40;;;15.33;;
10174;SDS011;18221;38.704;0.152;2023-03-23T03:36:21;19.47;;;14.93;;
10174;SDS011;18221;38.704;0.152;2023-03-23T03:39:00;16.53;;;14.73;;
10174;SDS011;18221;38.704;0.152;2023-03-23T03:41:33;19.53;;;17.23;;
10174;SDS011;18221;38.704;0.152;2023-03-23T03:44:02;21.43;;;17.97;;
10174;SDS011;18221;38.704;0.152;2023-03-23T03:46:31;18.10;;;16.07;;
10174;SDS011;18221;38.704;0.152;2023-03-23T03:49:01;21.43;;;17.10;;
10174;SDS011;18221;38.704;0.152;2023-03-23T03:51:34;21.20;;;18.13;;
10174;SDS011;18221;38.704;0.152;2023-03-23T03:54:02;19.07;;;17.10;;
10174;SDS011;18221;38.704;0.152;2023-03-23T03:56:31;21.43;;;18.33;;
10174;SDS011;18221;38.704;0.152;2023-03-23T03:59:01;22.67;;;19.00;;
10174;SDS011;18221;38.704;0.152;2023-03-23T04:01:30;31.13;;;20.20;;
10174;SDS011;18221;38.704;0.152;2023-03-23T04:03:58;24.10;;;19.13;;
10174;SDS011;18221;38.704;0.152;2023-03-23T04:06:27;21.13;;;18.50;;
10174;SDS011;18221;38.704;0.152;2023-03-23T04:08:57;84.83;;;21.37;;
10174;SDS011;18221;38.704;0.152;2023-03-23T04:11:26;99.23;;;24.30;;
10174;SDS011;18221;38.704;0.152;2023-03-23T04:13:55;28.30;;;19.23;;
10174;SDS011;18221;38.704;0.152;2023-03-23T04:16:23;21.20;;;18.87;;
10174;SDS011;18221;38.704;0.152;2023-03-23T04:18:54;32.57;;;21.07;;
10174;SDS011;18221;38.704;0.152;2023-03-23T04:21:24;32.27;;;19.90;;
10174;SDS011;18221;38.704;0.152;2023-03-23T04:23:54;22.33;;;18.77;;
10174;SDS011;18221;38.704;0.152;2023-03-23T04:26:26;21.80;;;18.47;;
10174;SDS011;18221;38.704;0.152;2023-03-23T04:28:56;20.47;;;18.03;;
10174;SDS011;18221;38.704;0.152;2023-03-23T04:31:25;18.37;;;15.77;;
10174;SDS011;18221;38.704;0.152;2023-03-23T04:33:53;23.87;;;17.93;;
10174;SDS011;18221;38.704;0.152;2023-03-23T04:36:23;18.23;;;15.87;;
10174;SDS011;18221;38.704;0.152;2023-03-23T04:38:52;19.63;;;15.83;;
10174;SDS011;18221;38.704;0.152;2023-03-23T04:41:21;18.30;;;16.27;;
10174;SDS011;18221;38.704;0.152;2023-03-23T04:43:51;19.47;;;14.83;;
10174;SDS011;18221;38.704;0.152;2023-03-23T04:46:22;18.60;;;15.63;;
10174;SDS011;18221;38.704;0.152;2023-03-23T04:48:54;19.77;;;14.83;;
10174;SDS011;18221;38.704;0.152;2023-03-23T04:51:23;18.07;;;15.10;;
10174;SDS011;18221;38.704;0.152;2023-03-23T04:53:52;19.57;;;16.33;;
10174;SDS011;18221;38.704;0.152;2023-03-23T04:56:22;16.80;;;14.80;;
10174;SDS011;18221;38.704;0.152;2023-03-23T04:58:50;19.27;;;15.27;;
10174;SDS011;18221;38.704;0.152;2023-03-23T05:01:19;17.77;;;14.63;;
10174;SDS011;18221;38.704;0.152;2023-03-23T05:03:47;16.80;;;14.70;;
10174;SDS011;18221;38.704;0.152;2023-03-23T05:06:15;16.43;;;14.63;;
10174;SDS011;18221;38.704;0.152;2023-03-23T05:08:43;16.37;;;13.27;;
10174;SDS011;18221;38.704;0.152;2023-03-23T05:11:11;15.70;;;13.23;;
10174;SDS011;18221;38.704;0.152;2023-03-23T05:13:41;13.40;;;11.70;;
10174;SDS011;18221;38.704;0.152;2023-03-23T05:16:09;16.50;;;13.03;;
10174;SDS011;18221;38.704;0.152;2023-03-23T05:18:37;14.57;;;13.03;;
10174;SDS011;18221;38.704;0.152;2023-03-23T05:21:06;14.63;;;12.83;;
10174;SDS011;18221;38.704;0.152;2023-03-23T05:23:34;11.27;;;10.07;;
10174;SDS011;18221;38.704;0.152;2023-03-23T05:26:03;10.20;;;8.93;;
10174;SDS011;18221;38.704;0.152;2023-03-23T05:28:32;9.30;;;7.93;;
10174;SDS011;18221;38.704;0.152;2023-03-23T05:31:03;10.07;;;7.70;;
10174;SDS011;18221;38.704;0.152;2023-03-23T05:33:31;7.87;;;7.07;;
10174;SDS011;18221;38.704;0.152;2023-03-23T05:35:59;7.60;;;6.80;;
10174;SDS011;18221;38.704;0.152;2023-03-23T05:38:29;7.37;;;6.67;;
10174;SDS011;18221;38.704;0.152;2023-03-23T05:40:58;7.40;;;6.00;;
10174;SDS011;18221;38.704;0.152;2023-03-23T05:43:27;7.23;;;6.50;;
10174;SDS011;18221;38.704;0.152;2023-03-23T05:45:55;7.50;;;5.87;;
10174;SDS011;18221;38.704;0.152;2023-03-23T05:48:25;5.60;;;5.10;;
10174;SDS011;18221;38.704;0.152;2023-03-23T05:50:53;8.57;;;6.53;;
10174;SDS011;18221;38.704;0.152;2023-03-23T05:53:21;7.10;;;6.40;;
10174;SDS011;18221;38.704;0.152;2023-03-23T05:55:50;7.37;;;6.47;;
10174;SDS011;18221;38.704;0.152;2023-03-23T05:58:18;7.10;;;6.40;;
10174;SDS011;18221;38.704;0.152;2023-03-23T06:00:46;8.37;;;7.13;;
10174;SDS011;18221;38.704;0.152;2023-03-23T06:03:14;7.40;;;6.27;;
10174;SDS011;18221;38.704;0.152;2023-03-23T06:05:44;6.63;;;5.53;;
10174;SDS011;18221;38.704;0.152;2023-03-23T06:08:13;7.60;;;5.70;;
10174;SDS011;18221;38.704;0.152;2023-03-23T06:10:41;7.27;;;6.50;;
10174;SDS011;18221;38.704;0.152;2023-03-23T06:13:09;9.30;;;6.77;;
10174;SDS011;18221;38.704;0.152;2023-03-23T06:15:38;7.00;;;6.30;;
10174;SDS011;18221;38.704;0.152;2023-03-23T06:18:06;8.30;;;7.40;;
10174;SDS011;18221;38.704;0.152;2023-03-23T06:20:35;8.47;;;6.80;;
10174;SDS011;18221;38.704;0.152;2023-03-23T06:23:06;8.93;;;8.03;;
10174;SDS011;18221;38.704;0.152;2023-03-23T06:25:34;10.43;;;8.30;;
10174;SDS011;18221;38.704;0.152;2023-03-23T06:28:03;13.90;;;8.47;;
10174;SDS011;18221;38.704;0.152;2023-03-23T06:30:32;9.23;;;7.77;;
10174;SDS011;18221;38.704;0.152;2023-03-23T06:33:00;9.03;;;7.83;;
10174;SDS011;18221;38.704;0.152;2023-03-23T06:35:30;8.80;;;7.90;;
10174;SDS011;18221;38.704;0.152;2023-03-23T06:37:59;9.43;;;7.27;;
10174;SDS011;18221;38.704;0.152;2023-03-23T06:40:29;8.67;;;7.53;;
10174;SDS011;18221;38.704;0.152;2023-03-23T06:42:58;8.23;;;7.43;;
10174;SDS011;18221;38.704;0.152;2023-03-23T06:45:26;10.07;;;8.17;;
10174;SDS011;18221;38.704;0.152;2023-03-23T06:47:54;11.23;;;8.90;;
10174;SDS011;18221;38.704;0.152;2023-03-23T06:50:23;10.93;;;7.97;;
10174;SDS011;18221;38.704;0.152;2023-03-23T06:52:52;8.77;;;7.37;;
10174;SDS011;18221;38.704;0.152;2023-03-23T06:55:20;12.23;;;8.87;;
10174;SDS011;18221;38.704;0.152;2023-03-23T06:57:50;9.17;;;7.90;;
10174;SDS011;18221;38.704;0.152;2023-03-23T07:00:18;8.33;;;7.50;;
10174;SDS011;18221;38.704;0.152;2023-03-23T07:02:47;8.43;;;7.53;;
10174;SDS011;18221;38.704;0.152;2023-03-23T07:05:15;12.50;;;10.13;;
10174;SDS011;18221;38.704;0.152;2023-03-23T07:07:44;10.73;;;9.63;;
10174;SDS011;18221;38.704;0.152;2023-03-23T07:10:13;8.37;;;7.40;;
10174;SDS011;18221;38.704;0.152;2023-03-23T07:12:41;11.03;;;9.93;;
10174;SDS011;18221;38.704;0.152;2023-03-23T07:15:11;13.40;;;11.83;;
10174;SDS011;18221;38.704;0.152;2023-03-23T07:17:40;12.40;;;11.00;;
10174;SDS011;18221;38.704;0.152;2023-03-23T07:20:09;13.40;;;11.83;;
10174;SDS011;18221;38.704;0.152;2023-03-23T07:22:39;10.47;;;9.43;;
10174;SDS011;18221;38.704;0.152;2023-03-23T07:25:08;12.87;;;11.33;;
10174;SDS011;18221;38.704;0.152;2023-03-23T07:27:37;12.30;;;10.83;;
10174;SDS011;18221;38.704;0.152;2023-03-23T07:30:06;18.17;;;12.27;;
10174;SDS011;18221;38.704;0.152;2023-03-23T07:32:37;13.27;;;9.07;;
10174;SDS011;18221;38.704;0.152;2023-03-23T07:35:05;12.83;;;10.67;;
10174;SDS011;18221;38.704;0.152;2023-03-23T07:37:35;17.67;;;13.00;;
10174;SDS011;18221;38.704;0.152;2023-03-23T07:40:04;12.63;;;9.43;;
10174;SDS011;18221;38.704;0.152;2023-03-23T07:42:40;12.43;;;11.13;;
10174;SDS011;18221;38.704;0.152;2023-03-23T07:45:10;12.87;;;10.30;;
10174;SDS011;18221;38.704;0.152;2023-03-23T07:47:42;12.07;;;10.77;;
10174;SDS011;18221;38.704;0.152;2023-03-23T07:50:11;13.43;;;11.20;;
10174;SDS011;18221;38.704;0.152;2023-03-23T07:52:40;12.33;;;11.13;;
10174;SDS011;18221;38.704;0.152;2023-03-23T07:55:10;16.17;;;11.73;;
10174;SDS011;18221;38.704;0.152;2023-03-23T07:57:43;12.97;;;11.57;;
10174;SDS011;18221;38.704;0.152;2023-03-23T08:00:12;13.47;;;11.90;;
10174;SDS011;18221;38.704;0.152;2023-03-23T08:02:45;13.43;;;11.23;;
10174;SDS011;18221;38.704;0.152;2023-03-23T08:05:15;13.87;;;10.83;;
10174;SDS011;18221;38.704;0.152;2023-03-23T08:07:45;12.70;;;11.40;;
10174;SDS011;18221;38.704;0.152;2023-03-23T08:10:15;16.63;;;12.70;;
10174;SDS011;18221;38.704;0.152;2023-03-23T08:12:45;14.20;;;11.90;;
10174;SDS011;18221;38.704;0.152;2023-03-23T08:15:17;12.43;;;10.40;;
10174;SDS011;18221;38.704;0.152;2023-03-23T08:17:48;12.50;;;10.60;;
10174;SDS011;18221;38.704;0.152;2023-03-23T08:20:18;11.93;;;10.70;;
10174;SDS011;18221;38.704;0.152;2023-03-23T08:22:49;12.37;;;10.57;;
10174;SDS011;18221;38.704;0.152;2023-03-23T08:25:20;12.40;;;10.93;;
10174;SDS011;18221;38.704;0.152;2023-03-23T08:27:51;15.03;;;11.20;;
10174;SDS011;18221;38.704;0.152;2023-03-23T08:30:20;12.67;;;10.50;;
10174;SDS011;18221;38.704;0.152;2023-03-23T08:32:51;12.60;;;10.70;;
10174;SDS011;18221;38.704;0.152;2023-03-23T08:35:20;12.10;;;10.37;;
10174;SDS011;18221;38.704;0.152;2023-03-23T08:37:49;10.23;;;9.17;;
10174;SDS011;18221;38.704;0.152;2023-03-23T08:40:20;13.10;;;10.97;;
10174;SDS011;18221;38.704;0.152;2023-03-23T08:42:50;13.03;;;11.43;;
10174;SDS011;18221;38.704;0.152;2023-03-23T08:45:20;13.13;;;11.70;;
10174;SDS011;18221;38.704;0.152;2023-03-23T08:47:53;12.90;;;10.77;;
10174;SDS011;18221;38.704;0.152;2023-03-23T08:50:24;11.93;;;10.73;;
10174;SDS011;18221;38.704;0.152;2023-03-23T08:52:56;13.37;;;11.27;;
10174;SDS011;18221;38.704;0.152;2023-03-23T08:55:25;12.73;;;11.40;;
10174;SDS011;18221;38.704;0.152;2023-03-23T08:57:55;12.53;;;10.67;;
10174;SDS011;18221;38.704;0.152;2023-03-23T09:00:23;12.10;;;10.47;;
10174;SDS011;18221;38.704;0.152;2023-03-23T09:02:54;17.40;;;12.23;;
10174;SDS011;18221;38.704;0.152;2023-03-23T09:05:23;14.20;;;11.77;;
10174;SDS011;18221;38.704;0.152;2023-03-23T09:07:54;12.57;;;10.17;;
10174;SDS011;18221;38.704;0.152;2023-03-23T09:10:25;17.37;;;12.37;;
10174;SDS011;18221;38.704;0.152;2023-03-23T09:12:55;14.57;;;12.97;;
10174;SDS011;18221;38.704;0.152;2023-03-23T09:15:23;12.17;;;10.80;;
10174;SDS011;18221;38.704;0.152;2023-03-23T09:17:52;15.30;;;13.80;;
10174;SDS011;18221;38.704;0.152;2023-03-23T09:20:23;18.47;;;13.53;;
10174;SDS011;18221;38.704;0.152;2023-03-23T09:22:54;16.77;;;13.40;;
10174;SDS011;18221;38.704;0.152;2023-03-23T09:25:24;18.07;;;14.17;;
10174;SDS011;18221;38.704;0.152;2023-03-23T09:27:55;17.90;;;13.67;;
10174;SDS011;18221;38.704;0.152;2023-03-23T09:30:26;15.97;;;13.27;;
10174;SDS011;18221;38.704;0.152;2023-03-23T09:32:59;17.03;;;14.53;;
10174;SDS011;18221;38.704;0.152;2023-03-23T09:35:28;19.07;;;14.33;;
10174;SDS011;18221;38.704;0.152;2023-03-23T09:37:59;16.40;;;14.10;;
10174;SDS011;18221;38.704;0.152;2023-03-23T09:40:30;17.93;;;14.73;;
10174;SDS011;18221;38.704;0.152;2023-03-23T09:43:16;17.93;;;14.37;;
10174;SDS011;18221;38.704;0.152;2023-03-23T09:46:14;17.63;;;15.33;;
10174;SDS011;18221;38.704;0.152;2023-03-23T09:49:05;20.17;;;15.80;;
10174;SDS011;18221;38.704;0.152;2023-03-23T09:51:42;14.83;;;13.20;;
10174;SDS011;18221;38.704;0.152;2023-03-23T09:54:17;22.17;;;14.40;;
10174;SDS011;18221;38.704;0.152;2023-03-23T09:56:50;15.83;;;12.23;;
10174;SDS011;18221;38.704;0.152;2023-03-23T09:59:21;16.67;;;13.00;;
10174;SDS011;18221;38.704;0.152;2023-03-23T10:01:58;17.00;;;12.47;;
10174;SDS011;18221;38.704;0.152;2023-03-23T10:04:43;14.87;;;12.13;;
10174;SDS011;18221;38.704;0.152;2023-03-23T10:07:14;17.60;;;13.33;;
10174;SDS011;18221;38.704;0.152;2023-03-23T10:09:46;16.33;;;13.57;;
10174;SDS011;18221;38.704;0.152;2023-03-23T10:12:21;15.50;;;12.07;;
10174;SDS011;18221;38.704;0.152;2023-03-23T10:15:12;14.00;;;12.60;;
10174;SDS011;18221;38.704;0.152;2023-03-23T10:17:49;17.63;;;14.80;;
10174;SDS011;18221;38.704;0.152;2023-03-23T10:20:27;17.40;;;12.70;;
10174;SDS011;18221;38.704;0.152;2023-03-23T10:23:13;13.60;;;11.23;;
10174;SDS011;18221;38.704;0.152;2023-03-23T10:26:04;14.13;;;9.67;;
10174;SDS011;18221;38.704;0.152;2023-03-23T10:28:46;10.27;;;9.20;;
10174;SDS011;18221;38.704;0.152;2023-03-23T10:31:20;11.03;;;8.70;;
10174;SDS011;18221;38.704;0.152;2023-03-23T10:33:54;10.73;;;8.37;;
10174;SDS011;18221;38.704;0.152;2023-03-23T10:36:31;10.50;;;9.47;;
10174;SDS011;18221;38.704;0.152;2023-03-23T10:39:09;9.57;;;8.50;;
10174;SDS011;18221;38.704;0.152;2023-03-23T10:41:42;10.83;;;8.73;;
10174;SDS011;18221;38.704;0.152;2023-03-23T10:44:12;13.17;;;10.77;;
10174;SDS011;18221;38.704;0.152;2023-03-23T10:46:51;11.87;;;8.73;;
10174;SDS011;18221;38.704;0.152;2023-03-23T10:49:27;10.07;;;8.87;;
10174;SDS011;18221;38.704;0.152;2023-03-23T10:52:04;11.97;;;9.83;;
10174;SDS011;18221;38.704;0.152;2023-03-23T10:54:49;10.53;;;9.43;;
10174;SDS011;18221;38.704;0.152;2023-03-23T10:57:22;11.80;;;10.33;;
10174;SDS011;18221;38.704;0.152;2023-03-23T10:59:58;9.93;;;8.57;;
10174;SDS011;18221;38.704;0.152;2023-03-23T11:02:31;11.33;;;10.10;;
10174;SDS011;18221;38.704;0.152;2023-03-23T11:05:09;12.67;;;9.67;;
10174;SDS011;18221;38.704;0.152;2023-03-23T11:07:50;11.87;;;10.17;;
10174;SDS011;18221;38.704;0.152;2023-03-23T11:10:22;12.77;;;10.00;;
10174;SDS011;18221;38.704;0.152;2023-03-23T11:12:56;11.40;;;9.50;;
10174;SDS011;18221;38.704;0.152;2023-03-23T11:15:30;11.93;;;9.23;;
10174;SDS011;18221;38.704;0.152;2023-03-23T11:18:03;11.83;;;9.03;;
10174;SDS011;18221;38.704;0.152;2023-03-23T11:20:35;12.47;;;9.57;;
10174;SDS011;18221;38.704;0.152;2023-03-23T11:26:02;11.57;;;9.70;;
10174;SDS011;18221;38.704;0.152;2023-03-23T11:28:43;15.03;;;10.83;;
10174;SDS011;18221;38.704;0.152;2023-03-23T11:31:19;16.03;;;11.97;;
10174;SDS011;18221;38.704;0.152;2023-03-23T11:33:52;17.80;;;13.70;;
10174;SDS011;18221;38.704;0.152;2023-03-23T11:36:29;19.90;;;15.47;;
10174;SDS011;18221;38.704;0.152;2023-03-23T11:39:03;17.53;;;15.27;;
10174;SDS011;18221;38.704;0.152;2023-03-23T11:41:52;22.33;;;15.87;;
10174;SDS011;18221;38.704;0.152;2023-03-23T11:44:24;23.10;;;17.40;;
10174;SDS011;18221;38.704;0.152;2023-03-23T11:47:00;20.27;;;15.97;;
10174;SDS011;18221;38.704;0.152;2023-03-23T11:49:39;21.30;;;16.63;;
10174;SDS011;18221;38.704;0.152;2023-03-23T11:52:19;25.23;;;17.20;;
10174;SDS011;18221;38.704;0.152;2023-03-23T11:54:59;25.87;;;17.43;;
10174;SDS011;18221;38.704;0.152;2023-03-23T11:57:39;20.77;;;15.50;;
10174;SDS011;18221;38.704;0.152;2023-03-23T12:00:12;20.47;;;16.00;;
10174;SDS011;18221;38.704;0.152;2023-03-23T12:02:45;16.17;;;13.47;;
10174;SDS011;18221;38.704;0.152;2023-03-23T12:06:04;18.03;;;13.33;;
10174;SDS011;18221;38.704;0.152;2023-03-23T12:08:43;17.77;;;14.93;;
10174;SDS011;18221;38.704;0.152;2023-03-23T12:11:27;14.97;;;12.93;;
10174;SDS011;18221;38.704;0.152;2023-03-23T12:14:07;17.77;;;12.77;;
10174;SDS011;18221;38.704;0.152;2023-03-23T12:16:53;21.13;;;14.40;;
10174;SDS011;18221;38.704;0.152;2023-03-23T12:19:39;18.30;;;14.73;;
10174;SDS011;18221;38.704;0.152;2023-03-23T12:22:26;17.57;;;14.77;;
10174;SDS011;18221;38.704;0.152;2023-03-23T12:25:16;19.40;;;15.30;;
10174;SDS011;18221;38.704;0.152;2023-03-23T12:28:45;18.90;;;15.20;;
10174;SDS011;18221;38.704;0.152;2023-03-23T12:31:40;21.53;;;17.33;;
10174;SDS011;18221;38.704;0.152;2023-03-23T12:34:39;20.97;;;17.40;;
10174;SDS011;18221;38.704;0.152;2023-03-23T12:37:26;28.27;;;19.07;;
10174;SDS011;18221;38.704;0.152;2023-03-23T12:40:18;22.00;;;18.37;;
10174;SDS011;18221;38.704;0.152;2023-03-23T12:43:03;19.17;;;15.90;;
10174;SDS011;18221;38.704;0.152;2023-03-23T12:45:51;19.20;;;16.23;;
10174;SDS011;18221;38.704;0.152;2023-03-23T12:48:39;17.57;;;14.57;;
10174;SDS011;18221;38.704;0.152;2023-03-23T12:51:13;17.87;;;15.53;;
10174;SDS011;18221;38.704;0.152;2023-03-23T12:53:52;15.50;;;12.90;;
10174;SDS011;18221;38.704;0.152;2023-03-23T12:56:28;18.90;;;14.47;;
10174;SDS011;18221;38.704;0.152;2023-03-23T12:59:05;16.60;;;12.63;;
10174;SDS011;18221;38.704;0.152;2023-03-23T13:01:43;15.47;;;11.90;;
10174;SDS011;18221;38.704;0.152;2023-03-23T13:04:16;15.30;;;10.70;;
10174;SDS011;18221;38.704;0.152;2023-03-23T13:06:48;13.50;;;11.53;;
10174;SDS011;18221;38.704;0.152;2023-03-23T13:09:20;13.43;;;11.33;;
10174;SDS011;18221;38.704;0.152;2023-03-23T13:11:55;14.00;;;11.80;;
10174;SDS011;18221;38.704;0.152;2023-03-23T13:14:33;11.90;;;10.23;;
10174;SDS011;18221;38.704;0.152;2023-03-23T13:17:16;15.37;;;11.00;;
10174;SDS011;18221;38.704;0.152;2023-03-23T13:20:11;13.90;;;10.73;;
10174;SDS011;18221;38.704;0.152;2023-03-23T13:23:03;14.47;;;10.00;;
10174;SDS011;18221;38.704;0.152;2023-03-23T13:28:29;13.17;;;9.53;;
10174;SDS011;18221;38.704;0.152;2023-03-23T13:31:02;11.63;;;9.20;;
10174;SDS011;18221;38.704;0.152;2023-03-23T13:33:46;11.23;;;8.97;;
10174;SDS011;18221;38.704;0.152;2023-03-23T13:36:19;12.97;;;10.20;;
10174;SDS011;18221;38.704;0.152;2023-03-23T13:38:57;13.03;;;9.83;;
10174;SDS011;18221;38.704;0.152;2023-03-23T13:41:29;15.17;;;9.07;;
10174;SDS011;18221;38.704;0.152;2023-03-23T13:44:05;14.50;;;9.30;;
10174;SDS011;18221;38.704;0.152;2023-03-23T13:46:57;12.23;;;9.83;;
10174;SDS011;18221;38.704;0.152;2023-03-23T13:49:46;10.23;;;7.80;;
10174;SDS011;18221;38.704;0.152;2023-03-23T13:52:22;9.13;;;6.97;;
10174;SDS011;18221;38.704;0.152;2023-03-23T13:55:17;9.77;;;7.40;;
10174;SDS011;18221;38.704;0.152;2023-03-23T13:57:57;7.03;;;6.20;;
10174;SDS011;18221;38.704;0.152;2023-03-23T14:00:45;7.03;;;5.80;;
10174;SDS011;18221;38.704;0.152;2023-03-23T14:03:17;10.93;;;5.37;;
10174;SDS011;18221;38.704;0.152;2023-03-23T14:06:02;8.57;;;5.37;;
10174;SDS011;18221;38.704;0.152;2023-03-23T14:08:38;12.00;;;5.10;;
10174;SDS011;18221;38.704;0.152;2023-03-23T14:11:11;34.10;;;7.30;;
10174;SDS011;18221;38.704;0.152;2023-03-23T14:13:45;4.97;;;4.30;;
10174;SDS011;18221;38.704;0.152;2023-03-23T14:16:31;6.63;;;4.50;;
10174;SDS011;18221;38.704;0.152;2023-03-23T14:19:12;6.00;;;4.33;;
10174;SDS011;18221;38.704;0.152;2023-03-23T14:21:51;7.57;;;4.13;;
10174;SDS011;18221;38.704;0.152;2023-03-23T14:24:23;5.63;;;4.30;;
10174;SDS011;18221;38.704;0.152;2023-03-23T14:27:02;3.93;;;3.53;;
10174;SDS011;18221;38.704;0.152;2023-03-23T14:29:37;6.80;;;4.10;;
10174;SDS011;18221;38.704;0.152;2023-03-23T14:32:07;5.57;;;3.97;;
10174;SDS011;18221;38.704;0.152;2023-03-23T14:34:42;5.60;;;4.03;;
10174;SDS011;18221;38.704;0.152;2023-03-23T14:37:16;8.93;;;4.43;;
10174;SDS011;18221;38.704;0.152;2023-03-23T14:39:45;4.77;;;3.30;;
10174;SDS011;18221;38.704;0.152;2023-03-23T14:42:16;6.90;;;3.27;;
10174;SDS011;18221;38.704;0.152;2023-03-23T14:44:53;4.57;;;3.10;;
10174;SDS011;18221;38.704;0.152;2023-03-23T14:47:22;9.17;;;3.70;;
10174;SDS011;18221;38.704;0.152;2023-03-23T14:49:57;5.97;;;3.80;;
10174;SDS011;18221;38.704;0.152;2023-03-23T14:52:33;2.73;;;2.40;;
10174;SDS011;18221;38.704;0.152;2023-03-23T14:55:13;3.83;;;2.53;;
10174;SDS011;18221;38.704;0.152;2023-03-23T14:57:46;5.03;;;2.23;;
10174;SDS011;18221;38.704;0.152;2023-03-23T15:00:16;3.87;;;2.00;;
10174;SDS011;18221;38.704;0.152;2023-03-23T15:02:49;2.60;;;1.50;;
10174;SDS011;18221;38.704;0.152;2023-03-23T15:05:24;2.10;;;1.67;;
10174;SDS011;18221;38.704;0.152;2023-03-23T15:08:01;2.70;;;1.30;;
10174;SDS011;18221;38.704;0.152;2023-03-23T15:10:33;2.53;;;1.60;;
10174;SDS011;18221;38.704;0.152;2023-03-23T15:13:02;3.47;;;1.30;;
10174;SDS011;18221;38.704;0.152;2023-03-23T15:15:30;2.83;;;1.70;;
10174;SDS011;18221;38.704;0.152;2023-03-23T15:18:02;3.73;;;1.23;;
10174;SDS011;18221;38.704;0.152;2023-03-23T15:20:31;2.50;;;1.53;;
10174;SDS011;18221;38.704;0.152;2023-03-23T15:23:15;1.93;;;1.33;;
10174;SDS011;18221;38.704;0.152;2023-03-23T15:25:55;2.40;;;1.40;;